Data for 12/18/2017

Time Sea-Level Adjusted Pressure Absolute Pressure Temperature Relative Humidity Dew Point   
(mb) (inHg) (mb) (inHg) (C) (F) (%) (C) (F)
00:05 1015 29.97 844 24.92 -1.5 29.4 64 -7.3 18.9
00:10 1015 29.97 844 24.92 -1.6 29 69 -6.6 20
00:15 1015 29.97 844 24.92 -2.8 26.9 77 -6.2 20.8
00:20 1015 29.97 844 24.92 -3.3 26.1 75 -7.2 19.1
00:25 1015 29.97 844 24.92 -3 26.7 72 -7.4 18.7
00:30 1015 29.97 844 24.92 -2.9 26.8 71 -7.4 18.7
00:35 1015 29.97 844 24.92 -2.8 26.9 71 -7.3 18.8
00:40 1015 29.97 844 24.92 -2.8 26.9 73 -7 19.3
00:45 1014 29.94 843 24.89 -2.9 26.7 73 -7.1 19.2
00:50 1014 29.94 843 24.89 -2.9 26.8 74 -7 19.4
00:55 1014 29.94 843 24.89 -3 26.5 75 -6.9 19.5
01:00 1014 29.94 843 24.89 -3 26.6 74 -7 19.3
01:05 1014 29.94 843 24.89 -2.9 26.9 75 -6.6 20
01:10 1014 29.94 843 24.89 -2.9 26.9 76 -6.5 20.3
01:15 1014 29.94 843 24.89 -2.7 27.2 77 -6.2 20.8
01:20 1014 29.94 843 24.89 -2.6 27.3 76 -6.2 20.8
01:25 1014 29.94 843 24.89 -2.5 27.5 76 -6.1 21
01:30 1014 29.94 843 24.89 -2.4 27.8 76 -6.1 21
01:35 1014 29.94 843 24.89 -2.2 28 75 -6.1 20.9
01:40 1014 29.94 843 24.89 -2 28.4 74 -6.1 21.1
01:45 1014 29.94 843 24.89 -2 28.4 75 -5.8 21.5
01:50 1014 29.94 843 24.89 -2 28.4 75 -5.9 21.3
01:55 1014 29.94 843 24.89 -1.8 28.7 76 -5.6 22
02:00 1014 29.94 843 24.89 -1.8 28.7 75 -5.7 21.7
02:05 1014 29.94 843 24.89 -1.6 29.2 73 -5.8 21.6
02:10 1014 29.94 843 24.89 -1.4 29.4 73 -5.6 21.9
02:15 1013 29.91 843 24.89 -1.4 29.5 72 -5.7 21.7
02:20 1013 29.91 843 24.89 -1.2 29.8 72 -5.6 21.9
02:25 1013 29.91 842 24.86 -1.1 30 72 -5.5 22.2
02:30 1013 29.91 842 24.86 -1.1 30.1 73 -5.3 22.4
02:35 1013 29.91 842 24.86 -1.2 29.9 74 -5.3 22.4
02:40 1013 29.91 842 24.86 -1.4 29.5 75 -5.2 22.6
02:45 1013 29.91 842 24.86 -1.6 29.1 77 -5.2 22.7
02:50 1013 29.91 842 24.86 -1.7 29 77 -5.2 22.6
02:55 1013 29.91 842 24.86 -1.6 29.1 76 -5.4 22.3
03:00 1013 29.91 842 24.86 -1.4 29.5 75 -5.2 22.6
03:05 1013 29.91 842 24.86 -1.1 30 74 -5.1 22.7
03:10 1013 29.91 842 24.86 -0.4 31.3 69 -5.3 22.5
03:15 1013 29.91 842 24.86 -0 32 69 -5 22.9
03:20 1013 29.91 842 24.86 0.4 32.7 69 -4.6 23.6
03:25 1013 29.91 842 24.86 1 33.7 67 -4.5 23.9
03:30 1013 29.91 842 24.86 1.9 35.5 64 -4.2 24.4
03:35 1013 29.91 842 24.86 1.9 35.4 67 -3.7 25.4
03:40 1013 29.91 842 24.86 1.1 34.1 69 -3.9 25.1
03:45 1012 29.88 842 24.86 0.9 33.6 68 -4.3 24.2
03:50 1012 29.88 842 24.86 1.1 34.1 67 -4.3 24.2
03:55 1012 29.88 842 24.86 1.3 34.4 68 -4 24.7
04:00 1012 29.88 842 24.86 1.7 35.1 66 -3.9 25
04:05 1012 29.88 842 24.86 2.8 37.1 61 -4 24.8
04:10 1012 29.88 841 24.83 4.2 39.6 56 -3.8 25.2
04:15 1012 29.88 841 24.83 4.7 40.5 56 -3.3 26.1
04:20 1012 29.88 841 24.83 4.8 40.7 54 -3.7 25.4
04:25 1012 29.88 841 24.83 5.2 41.3 55 -3.2 26.3
04:30 1012 29.88 841 24.83 5 41.1 55 -3.2 26.2
04:35 1012 29.88 841 24.83 5.4 41.7 52 -3.6 25.5
04:40 1012 29.88 841 24.83 5.7 42.3 52 -3.4 25.9
04:45 1012 29.88 841 24.83 5.5 41.9 54 -3.1 26.3
04:50 1012 29.88 841 24.83 5.2 41.4 52 -3.7 25.4
04:55 1012 29.88 841 24.83 5.6 42.1 51 -3.8 25.1
05:00 1012 29.88 841 24.83 5.8 42.4 51 -3.6 25.5
05:05 1012 29.88 841 24.83 5.5 41.8 53 -3.4 25.8
05:10 1012 29.88 841 24.83 5.4 41.7 53 -3.5 25.7
05:15 1012 29.88 841 24.83 5.3 41.6 53 -3.4 25.9
05:20 1012 29.88 841 24.83 5.3 41.5 54 -3.3 26.1
05:25 1012 29.88 841 24.83 5.4 41.7 52 -3.6 25.5
05:30 1012 29.88 841 24.83 5.6 42 50 -4 24.8
05:35 1012 29.88 841 24.83 5.7 42.3 50 -3.8 25.1
05:40 1012 29.88 841 24.83 5.9 42.7 49 -3.9 24.9
05:45 1012 29.88 841 24.83 5.7 42.3 52 -3.4 25.9
05:50 1012 29.88 841 24.83 5.4 41.7 52 -3.7 25.3
05:55 1012 29.88 841 24.83 5.5 41.8 51 -3.8 25.2
06:00 1012 29.88 841 24.83 5.4 41.7 53 -3.3 26
06:05 1012 29.88 841 24.83 5 41.1 55 -3.3 26.1
06:10 1012 29.88 841 24.83 4.8 40.7 55 -3.4 25.8
06:15 1012 29.88 841 24.83 5.1 41.2 51 -4.1 24.6
06:20 1012 29.88 841 24.83 5.4 41.8 50 -4.1 24.7
06:25 1012 29.88 841 24.83 5.4 41.7 51 -3.8 25.1
06:30 1012 29.88 841 24.83 5.5 41.9 50 -4.2 24.4
06:35 1012 29.88 841 24.83 5.8 42.5 49 -4 24.8
06:40 1012 29.88 841 24.83 5.7 42.3 49 -4.1 24.6
06:45 1012 29.88 841 24.83 5.5 41.9 51 -3.9 25
06:50 1012 29.88 841 24.83 5.3 41.6 51 -3.9 24.9
06:55 1012 29.88 841 24.83 5.3 41.5 52 -3.8 25.2
07:00 1012 29.88 841 24.83 5.5 41.9 49 -4.2 24.4
07:05 1012 29.88 841 24.83 5.8 42.4 50 -3.8 25.1
07:10 1012 29.88 841 24.83 5.7 42.2 51 -3.7 25.3
07:15 1012 29.88 841 24.83 5.5 41.9 51 -3.8 25.1
07:20 1012 29.88 841 24.83 5.6 42.1 48 -4.5 24
07:25 1012 29.88 841 24.83 6.1 43 47 -4.3 24.2
07:30 1012 29.88 841 24.83 6.1 42.9 49 -3.8 25.1
07:35 1012 29.88 841 24.83 5.9 42.5 47 -4.4 24
07:40 1012 29.88 841 24.83 6.1 43.1 47 -4.3 24.3
07:45 1012 29.88 842 24.86 6 42.8 49 -4 24.7
07:50 1012 29.88 842 24.86 5.8 42.5 48 -4.3 24.2
07:55 1012 29.88 842 24.86 6 42.8 47 -4.4 24.1
08:00 1013 29.91 842 24.86 6.3 43.4 45 -4.6 23.7
08:05 1013 29.91 842 24.86 6.1 43 48 -4.2 24.5
08:10 1013 29.91 842 24.86 6 42.8 46 -4.7 23.6
08:15 1013 29.91 842 24.86 6.2 43.1 46 -4.5 24
08:20 1013 29.91 842 24.86 6.1 42.9 47 -4.4 24
08:25 1013 29.91 842 24.86 6.1 43 47 -4.4 24.2
08:30 1013 29.91 842 24.86 5.9 42.7 48 -4.2 24.5
08:35 1013 29.91 842 24.86 5.9 42.6 48 -4.4 24.1
08:40 1013 29.91 842 24.86 5.9 42.6 48 -4.3 24.3
08:45 1013 29.91 842 24.86 6 42.8 46 -4.7 23.6
08:50 1013 29.91 842 24.86 6.2 43.1 47 -4.4 24.1
08:55 1013 29.91 842 24.86 6.1 42.9 47 -4.5 23.9
09:00 1013 29.91 842 24.86 6.1 43 49 -3.9 25
09:05 1013 29.91 842 24.86 5.8 42.4 48 -4.4 24.2
09:10 1013 29.91 842 24.86 6 42.8 48 -4.2 24.4
09:15 1013 29.91 842 24.86 6.1 42.9 47 -4.4 24.1
09:20 1013 29.91 842 24.86 6.3 43.4 46 -4.5 24
09:25 1013 29.91 842 24.86 6.2 43.2 46 -4.4 24.1
09:30 1013 29.91 842 24.86 6.3 43.4 46 -4.4 24
09:35 1013 29.91 842 24.86 6.3 43.4 46 -4.5 23.9
09:40 1013 29.91 842 24.86 6.2 43.2 46 -4.5 23.9
09:45 1013 29.91 842 24.86 6.2 43.2 47 -4.2 24.5
09:50 1013 29.91 842 24.86 6.4 43.5 45 -4.8 23.4
09:55 1013 29.91 842 24.86 6.5 43.8 45 -4.4 24
10:00 1013 29.91 842 24.86 6.5 43.6 45 -4.6 23.7
10:05 1013 29.91 842 24.86 6.5 43.6 46 -4.2 24.5
10:10 1013 29.91 842 24.86 6.3 43.3 46 -4.4 24.1
10:15 1013 29.91 842 24.86 6.4 43.5 45 -4.6 23.8
10:20 1013 29.91 842 24.86 6.5 43.6 46 -4.3 24.3
10:25 1013 29.91 842 24.86 6.3 43.4 47 -4.1 24.6
10:30 1013 29.91 842 24.86 6.2 43.2 48 -4 24.7
10:35 1013 29.91 842 24.86 6.3 43.4 45 -4.7 23.6
10:40 1013 29.91 842 24.86 6.6 43.8 45 -4.5 23.9
10:45 1013 29.91 842 24.86 6.6 43.8 46 -4.3 24.2
10:50 1013 29.91 842 24.86 6.5 43.7 45 -4.6 23.7
10:55 1013 29.91 842 24.86 6.7 44.1 44 -4.7 23.5
11:00 1013 29.91 842 24.86 6.8 44.2 44 -4.5 23.9
11:05 1013 29.91 842 24.86 6.6 44 45 -4.5 23.9
11:10 1013 29.91 842 24.86 6.6 43.9 45 -4.6 23.8
11:15 1013 29.91 842 24.86 6.8 44.2 43 -5 23
11:20 1013 29.91 842 24.86 6.9 44.4 43 -4.9 23.2
11:25 1013 29.91 842 24.86 6.9 44.4 42 -5.1 22.8
11:30 1013 29.91 842 24.86 6.9 44.4 42 -5.1 22.8
11:35 1013 29.91 842 24.86 6.8 44.2 42 -5.3 22.5
11:40 1013 29.91 842 24.86 6.9 44.4 40 -5.8 21.5
11:45 1013 29.91 842 24.86 7 44.6 42 -5.1 22.7
11:50 1013 29.91 842 24.86 6.9 44.5 40 -5.7 21.8
11:55 1013 29.91 842 24.86 6.8 44.2 42 -5.1 22.8
12:00 1013 29.91 842 24.86 6.7 44 40 -5.8 21.5
12:05 1013 29.91 842 24.86 6.8 44.2 41 -5.5 22.1
12:10 1013 29.91 842 24.86 6.6 43.9 42 -5.4 22.2
12:15 1013 29.91 842 24.86 6.6 43.9 40 -6 21.1
12:20 1013 29.91 842 24.86 6.8 44.2 40 -5.8 21.5
12:25 1013 29.91 842 24.86 6.7 44 40 -5.9 21.4
12:30 1013 29.91 842 24.86 6.7 44.1 40 -6.1 21
12:35 1013 29.91 842 24.86 6.8 44.2 40 -6 21.2
12:40 1013 29.91 842 24.86 6.7 44.1 40 -5.8 21.5
12:45 1013 29.91 842 24.86 6.6 43.9 42 -5.4 22.2
12:50 1013 29.91 842 24.86 6.5 43.7 41 -5.7 21.7
12:55 1013 29.91 842 24.86 6.6 43.8 41 -5.6 21.9
13:00 1013 29.91 842 24.86 6.6 43.9 42 -5.4 22.3
13:05 1013 29.91 842 24.86 6.5 43.7 43 -5 22.9
13:10 1013 29.91 842 24.86 6.4 43.6 41 -5.7 21.7
13:15 1013 29.91 842 24.86 6.6 43.9 42 -5.3 22.4
13:20 1013 29.91 842 24.86 6.5 43.7 43 -5.2 22.6
13:25 1013 29.91 842 24.86 6.7 44.1 40 -5.8 21.6
13:30 1013 29.91 842 24.86 6.9 44.4 39 -6 21.2
13:35 1013 29.91 842 24.86 6.9 44.5 38 -6.3 20.6
13:40 1013 29.91 842 24.86 7 44.6 38 -6.3 20.7
13:45 1013 29.91 842 24.86 7.1 44.7 39 -5.9 21.3
13:50 1013 29.91 842 24.86 6.9 44.4 40 -5.7 21.7
13:55 1013 29.91 842 24.86 6.8 44.2 40 -5.9 21.3
14:00 1013 29.91 842 24.86 6.8 44.3 40 -5.8 21.5
14:05 1013 29.91 842 24.86 6.9 44.4 39 -6.2 20.8
14:10 1013 29.91 842 24.86 6.9 44.4 39 -6.2 20.9
14:15 1013 29.91 842 24.86 6.9 44.4 40 -5.7 21.7
14:20 1013 29.91 842 24.86 6.9 44.3 40 -5.9 21.4
14:25 1013 29.91 842 24.86 6.8 44.2 40 -5.9 21.4
14:30 1013 29.91 842 24.86 6.7 44.1 40 -5.8 21.6
14:35 1013 29.91 842 24.86 6.7 44 42 -5.3 22.4
14:40 1013 29.91 842 24.86 6.6 43.8 41 -5.7 21.8
14:45 1013 29.91 842 24.86 6.6 43.9 42 -5.5 22.1
14:50 1013 29.91 842 24.86 6.6 43.8 41 -5.9 21.4
14:55 1013 29.91 842 24.86 6.7 44 41 -5.6 21.9
15:00 1013 29.91 842 24.86 6.6 43.8 43 -5 22.9
15:05 1013 29.91 842 24.86 6.3 43.3 43 -5.3 22.5
15:10 1013 29.91 842 24.86 6.3 43.4 44 -5.2 22.7
15:15 1013 29.91 842 24.86 6.3 43.4 44 -5.1 22.8
15:20 1013 29.91 842 24.86 6.4 43.4 43 -5.3 22.4
15:25 1013 29.91 843 24.89 6.4 43.5 43 -5.2 22.6
15:30 1013 29.91 843 24.89 6.4 43.6 43 -5.1 22.7
15:35 1013 29.91 843 24.89 6.2 43.2 44 -5 23
15:40 1014 29.94 843 24.89 6.3 43.3 44 -5.2 22.7
15:45 1014 29.94 843 24.89 6.4 43.5 41 -6 21.2
15:50 1014 29.94 843 24.89 6.7 44.1 42 -5.3 22.5
15:55 1014 29.94 843 24.89 6.4 43.5 44 -4.9 23.2
16:00 1014 29.94 843 24.89 6.1 43.1 45 -4.8 23.3
16:05 1014 29.94 843 24.89 6.1 43 45 -4.9 23.3
16:10 1014 29.94 843 24.89 6.1 43 44 -5.2 22.6
16:15 1014 29.94 843 24.89 6.1 43 44 -5.1 22.8
16:20 1014 29.94 843 24.89 6 42.8 46 -4.6 23.6
16:25 1014 29.94 843 24.89 5.9 42.7 46 -4.9 23.2
16:30 1014 29.94 843 24.89 6 42.8 46 -4.7 23.6
16:35 1014 29.94 844 24.92 5.9 42.7 47 -4.5 23.9
16:40 1014 29.94 844 24.92 5.8 42.4 47 -4.6 23.8
16:45 1014 29.94 843 24.89 5.8 42.4 46 -4.9 23.3
16:50 1014 29.94 843 24.89 6 42.8 45 -4.9 23.1
16:55 1014 29.94 844 24.92 6 42.7 46 -4.7 23.6
17:00 1014 29.94 844 24.92 5.9 42.7 45 -4.9 23.1
17:05 1014 29.94 844 24.92 6 42.8 46 -4.8 23.3
17:10 1014 29.94 844 24.92 6 42.8 45 -4.9 23.2
17:15 1014 29.94 844 24.92 6 42.8 46 -4.9 23.2
17:20 1014 29.94 844 24.92 5.9 42.6 47 -4.6 23.7
17:25 1015 29.97 844 24.92 5.8 42.4 48 -4.5 23.9
17:30 1014 29.94 844 24.92 5.8 42.4 45 -5.3 22.5
17:35 1015 29.97 844 24.92 5.9 42.7 46 -4.9 23.2
17:40 1015 29.97 844 24.92 5.8 42.5 47 -4.7 23.6
17:45 1015 29.97 844 24.92 5.8 42.5 46 -4.9 23.2
17:50 1015 29.97 844 24.92 5.9 42.7 45 -5 23
17:55 1015 29.97 844 24.92 5.9 42.7 45 -5 23
18:00 1015 29.97 844 24.92 6 42.7 46 -4.8 23.4
18:05 1015 29.97 844 24.92 5.8 42.4 47 -4.7 23.6
18:10 1015 29.97 844 24.92 5.6 42.1 50 -4.1 24.7
18:15 1015 29.97 844 24.92 5.3 41.5 50 -4.2 24.4
18:20 1015 29.97 844 24.92 5.1 41.1 53 -3.7 25.4
18:25 1015 29.97 844 24.92 4.7 40.5 53 -4.1 24.6
18:30 1015 29.97 844 24.92 4.8 40.7 52 -4.1 24.5
18:35 1015 29.97 844 24.92 5.1 41.2 50 -4.6 23.8
18:40 1015 29.97 844 24.92 5.3 41.5 49 -4.4 24
18:45 1015 29.97 844 24.92 5.3 41.6 48 -4.7 23.5
18:50 1015 29.97 844 24.92 5.4 41.8 48 -4.8 23.4
18:55 1015 29.97 844 24.92 5.5 41.8 48 -4.7 23.5
19:00 1015 29.97 844 24.92 5.4 41.7 50 -4.2 24.5
19:05 1015 29.97 844 24.92 5.1 41.1 51 -4.4 24.2
19:10 1015 29.97 844 24.92 5 41 50 -4.6 23.8
19:15 1015 29.97 844 24.92 5.3 41.5 47 -5.1 22.8
19:20 1015 29.97 844 24.92 5.5 41.9 49 -4.4 24
19:25 1015 29.97 844 24.92 5.2 41.3 50 -4.5 24
19:30 1015 29.97 844 24.92 5.2 41.3 50 -4.5 24
19:35 1015 29.97 845 24.95 5.1 41.3 50 -4.5 23.8
19:40 1015 29.97 845 24.95 5.2 41.4 49 -4.6 23.7
19:45 1015 29.97 845 24.95 5.3 41.5 49 -4.6 23.7
19:50 1015 29.97 845 24.95 5.1 41.2 51 -4.2 24.4
19:55 1015 29.97 845 24.95 5 41 51 -4.3 24.3
20:00 1015 29.97 845 24.95 5 41 51 -4.4 24.1
20:05 1015 29.97 845 24.95 5.1 41.1 50 -4.5 24
20:10 1016 30 845 24.95 5 41.1 50 -4.4 24.1
20:15 1016 30 845 24.95 5 41.1 50 -4.6 23.7
20:20 1016 30 845 24.95 5.2 41.3 50 -4.3 24.3
20:25 1016 30 845 24.95 5 41 51 -4.4 24.1
20:30 1016 30 845 24.95 5 40.9 50 -4.5 23.9
20:35 1016 30 845 24.95 5 41 51 -4.3 24.2
20:40 1016 30 845 24.95 5 40.9 52 -4.1 24.5
20:45 1016 30 845 24.95 4.8 40.7 52 -4.2 24.5
20:50 1016 30 845 24.95 4.8 40.7 52 -4.2 24.4
20:55 1016 30 845 24.95 4.8 40.7 52 -4.2 24.5
21:00 1016 30 845 24.95 4.9 40.7 51 -4.4 24.1
21:05 1016 30 845 24.95 4.9 40.8 51 -4.5 23.9
21:10 1016 30 845 24.95 4.9 40.8 50 -4.6 23.7
21:15 1016 30 845 24.95 5 40.9 51 -4.3 24.2
21:20 1016 30 845 24.95 4.9 40.8 50 -4.6 23.8
21:25 1016 30 845 24.95 4.9 40.8 51 -4.3 24.2
21:30 1016 30 845 24.95 4.8 40.7 50 -4.6 23.7
21:35 1016 30 845 24.95 4.9 40.8 50 -4.7 23.6
21:40 1016 30 845 24.95 4.9 40.8 51 -4.5 23.9
21:45 1016 30 845 24.95 4.8 40.6 52 -4.2 24.4
21:50 1016 30 845 24.95 4.7 40.5 51 -4.5 24
21:55 1016 30 845 24.95 4.8 40.6 52 -4.2 24.4
22:00 1016 30 845 24.95 4.7 40.4 53 -4.2 24.5
22:05 1016 30 845 24.95 4.6 40.3 54 -4 24.7
22:10 1016 30 845 24.95 4.5 40 53 -4.3 24.3
22:15 1016 30 845 24.95 4.5 40.1 54 -4.1 24.6
22:20 1016 30 845 24.95 4.6 40.3 52 -4.3 24.3
22:25 1016 30 845 24.95 4.7 40.5 53 -4 24.7
22:30 1016 30 845 24.95 4.8 40.6 52 -4.2 24.5
22:35 1016 30 845 24.95 4.9 40.9 51 -4.4 24.1
22:40 1016 30 845 24.95 5 41 51 -4.3 24.3
22:45 1016 30 845 24.95 5 41 52 -4.1 24.6
22:50 1016 30 845 24.95 4.9 40.8 53 -3.9 24.9
22:55 1016 30 845 24.95 4.8 40.7 53 -4 24.7
23:00 1016 30 845 24.95 4.8 40.6 53 -4 24.8
23:05 1016 30 845 24.95 4.8 40.6 52 -4.2 24.5
23:10 1016 30 845 24.95 4.9 40.8 52 -4.2 24.5
23:15 1016 30 845 24.95 5 41.1 51 -4.4 24.1
23:20 1016 30 845 24.95 5.1 41.3 51 -4.1 24.6
23:25 1016 30 845 24.95 5 41 51 -4.2 24.4
23:30 1016 30 845 24.95 5 40.9 52 -4 24.8
23:35 1016 30 845 24.95 4.9 40.8 52 -4.1 24.6
23:40 1016 30 845 24.95 4.9 40.8 51 -4.5 24
23:45 1016 30 845 24.95 5 41 50 -4.4 24
23:50 1016 30 845 24.95 5 41 50 -4.6 23.7
23:55 1016 30 845 24.95 5.1 41.2 49 -4.7 23.6
24:00 1016 30 845 24.95 5.1 41.2 49 -4.7 23.6